sensor_id;sensor_type;location;lat;lon;timestamp;temperature;humidity
27162;DHT22;54464;50.558;9.704;2023-03-14T00:01:14;9.60;99.90
27162;DHT22;54464;50.558;9.704;2023-03-14T00:03:40;9.70;99.90
27162;DHT22;54464;50.558;9.704;2023-03-14T00:06:07;9.70;99.90
27162;DHT22;54464;50.558;9.704;2023-03-14T00:08:33;9.70;99.90
27162;DHT22;54464;50.558;9.704;2023-03-14T00:11:04;9.70;99.90
27162;DHT22;54464;50.558;9.704;2023-03-14T00:13:30;9.70;99.90
27162;DHT22;54464;50.558;9.704;2023-03-14T00:16:05;9.70;99.90
27162;DHT22;54464;50.558;9.704;2023-03-14T00:18:32;9.70;99.90
27162;DHT22;54464;50.558;9.704;2023-03-14T00:21:02;9.70;99.90
27162;DHT22;54464;50.558;9.704;2023-03-14T00:23:29;9.70;99.90
27162;DHT22;54464;50.558;9.704;2023-03-14T00:26:06;9.70;99.90
27162;DHT22;54464;50.558;9.704;2023-03-14T00:28:32;9.60;99.90
27162;DHT22;54464;50.558;9.704;2023-03-14T00:33:36;9.60;99.90
27162;DHT22;54464;50.558;9.704;2023-03-14T00:41:12;9.60;99.90
27162;DHT22;54464;50.558;9.704;2023-03-14T00:46:15;9.50;99.90
27162;DHT22;54464;50.558;9.704;2023-03-14T00:48:43;9.50;99.90
27162;DHT22;54464;50.558;9.704;2023-03-14T00:51:10;9.40;99.90
27162;DHT22;54464;50.558;9.704;2023-03-14T00:53:39;9.50;99.90
27162;DHT22;54464;50.558;9.704;2023-03-14T00:56:11;9.50;99.90
27162;DHT22;54464;50.558;9.704;2023-03-14T00:58:37;9.60;99.90
27162;DHT22;54464;50.558;9.704;2023-03-14T01:01:15;9.50;99.90
27162;DHT22;54464;50.558;9.704;2023-03-14T01:03:43;9.50;99.90
27162;DHT22;54464;50.558;9.704;2023-03-14T01:08:40;9.50;99.90
27162;DHT22;54464;50.558;9.704;2023-03-14T01:11:17;9.60;99.90
27162;DHT22;54464;50.558;9.704;2023-03-14T01:16:19;9.50;99.90
27162;DHT22;54464;50.558;9.704;2023-03-14T01:21:33;9.50;99.90
27162;DHT22;54464;50.558;9.704;2023-03-14T01:24:09;9.50;99.90
27162;DHT22;54464;50.558;9.704;2023-03-14T01:31:49;9.50;99.90
27162;DHT22;54464;50.558;9.704;2023-03-14T01:34:16;9.40;99.90
27162;DHT22;54464;50.558;9.704;2023-03-14T01:36:42;9.50;99.90
27162;DHT22;54464;50.558;9.704;2023-03-14T01:39:08;9.50;99.90
27162;DHT22;54464;50.558;9.704;2023-03-14T01:41:35;9.60;99.90
27162;DHT22;54464;50.558;9.704;2023-03-14T01:44:02;9.50;99.90
27162;DHT22;54464;50.558;9.704;2023-03-14T01:49:22;9.50;99.90
27162;DHT22;54464;50.558;9.704;2023-03-14T01:52:09;9.50;99.90
27162;DHT22;54464;50.558;9.704;2023-03-14T01:54:40;9.50;99.90
27162;DHT22;54464;50.558;9.704;2023-03-14T01:59:41;9.50;99.90
27162;DHT22;54464;50.558;9.704;2023-03-14T02:02:10;9.50;99.90
27162;DHT22;54464;50.558;9.704;2023-03-14T02:04:38;9.50;99.90
27162;DHT22;54464;50.558;9.704;2023-03-14T02:07:26;9.50;99.90
27162;DHT22;54464;50.558;9.704;2023-03-14T02:09:53;9.50;99.90
27162;DHT22;54464;50.558;9.704;2023-03-14T02:12:21;9.50;99.90
27162;DHT22;54464;50.558;9.704;2023-03-14T02:14:47;9.40;99.90
27162;DHT22;54464;50.558;9.704;2023-03-14T02:17:18;9.50;99.90
27162;DHT22;54464;50.558;9.704;2023-03-14T02:20:10;9.50;99.90
27162;DHT22;54464;50.558;9.704;2023-03-14T02:22:40;9.40;99.90
27162;DHT22;54464;50.558;9.704;2023-03-14T02:27:45;9.40;99.90
27162;DHT22;54464;50.558;9.704;2023-03-14T02:30:18;9.40;99.90
27162;DHT22;54464;50.558;9.704;2023-03-14T02:32:47;9.40;99.90
27162;DHT22;54464;50.558;9.704;2023-03-14T02:35:17;9.40;99.90
27162;DHT22;54464;50.558;9.704;2023-03-14T02:37:46;9.40;99.90
27162;DHT22;54464;50.558;9.704;2023-03-14T02:40:13;9.40;99.90
27162;DHT22;54464;50.558;9.704;2023-03-14T02:42:39;9.30;99.90
27162;DHT22;54464;50.558;9.704;2023-03-14T02:47:39;9.20;99.90
27162;DHT22;54464;50.558;9.704;2023-03-14T02:50:15;9.20;99.90
27162;DHT22;54464;50.558;9.704;2023-03-14T02:52:42;9.20;99.90
27162;DHT22;54464;50.558;9.704;2023-03-14T02:55:08;9.20;99.90
27162;DHT22;54464;50.558;9.704;2023-03-14T02:57:34;9.20;99.90
27162;DHT22;54464;50.558;9.704;2023-03-14T03:00:01;9.20;99.90
27162;DHT22;54464;50.558;9.704;2023-03-14T03:02:30;9.20;99.90
27162;DHT22;54464;50.558;9.704;2023-03-14T03:04:56;9.20;99.90
27162;DHT22;54464;50.558;9.704;2023-03-14T03:07:21;9.30;99.90
27162;DHT22;54464;50.558;9.704;2023-03-14T03:09:47;9.30;99.90
27162;DHT22;54464;50.558;9.704;2023-03-14T03:12:13;9.30;99.90
27162;DHT22;54464;50.558;9.704;2023-03-14T03:14:38;9.30;99.90
27162;DHT22;54464;50.558;9.704;2023-03-14T03:17:05;9.30;99.90
27162;DHT22;54464;50.558;9.704;2023-03-14T03:19:31;9.30;99.90
27162;DHT22;54464;50.558;9.704;2023-03-14T03:21:57;9.30;99.90
27162;DHT22;54464;50.558;9.704;2023-03-14T03:24:24;9.40;99.90
27162;DHT22;54464;50.558;9.704;2023-03-14T03:26:49;9.30;99.90
27162;DHT22;54464;50.558;9.704;2023-03-14T03:29:15;9.30;99.90
27162;DHT22;54464;50.558;9.704;2023-03-14T03:31:41;9.30;99.90
27162;DHT22;54464;50.558;9.704;2023-03-14T03:34:07;9.30;99.90
27162;DHT22;54464;50.558;9.704;2023-03-14T03:41:41;9.10;99.90
27162;DHT22;54464;50.558;9.704;2023-03-14T03:44:07;9.00;99.90
27162;DHT22;54464;50.558;9.704;2023-03-14T03:46:34;9.10;99.90
27162;DHT22;54464;50.558;9.704;2023-03-14T03:49:00;9.10;99.90
27162;DHT22;54464;50.558;9.704;2023-03-14T03:51:26;9.00;99.90
27162;DHT22;54464;50.558;9.704;2023-03-14T03:53:51;9.10;99.90
27162;DHT22;54464;50.558;9.704;2023-03-14T03:56:17;9.10;99.90
27162;DHT22;54464;50.558;9.704;2023-03-14T03:58:43;9.20;99.90
27162;DHT22;54464;50.558;9.704;2023-03-14T04:01:09;9.20;99.90
27162;DHT22;54464;50.558;9.704;2023-03-14T04:03:36;9.20;99.90
27162;DHT22;54464;50.558;9.704;2023-03-14T04:06:09;9.20;99.90
27162;DHT22;54464;50.558;9.704;2023-03-14T04:08:35;9.20;99.90
27162;DHT22;54464;50.558;9.704;2023-03-14T04:11:01;9.30;99.90
27162;DHT22;54464;50.558;9.704;2023-03-14T04:13:28;9.30;99.90
27162;DHT22;54464;50.558;9.704;2023-03-14T04:15:54;9.20;99.90
27162;DHT22;54464;50.558;9.704;2023-03-14T04:18:21;9.30;99.90
27162;DHT22;54464;50.558;9.704;2023-03-14T04:20:54;9.30;99.90
27162;DHT22;54464;50.558;9.704;2023-03-14T04:23:21;9.40;99.90
27162;DHT22;54464;50.558;9.704;2023-03-14T04:28:26;9.30;99.90
27162;DHT22;54464;50.558;9.704;2023-03-14T04:30:52;9.30;99.90
27162;DHT22;54464;50.558;9.704;2023-03-14T04:33:18;9.30;99.90
27162;DHT22;54464;50.558;9.704;2023-03-14T04:35:48;9.30;99.90
27162;DHT22;54464;50.558;9.704;2023-03-14T04:38:16;9.30;99.90
27162;DHT22;54464;50.558;9.704;2023-03-14T04:40:42;9.40;99.90
27162;DHT22;54464;50.558;9.704;2023-03-14T04:43:10;9.40;99.90
27162;DHT22;54464;50.558;9.704;2023-03-14T04:45:36;9.40;99.90
27162;DHT22;54464;50.558;9.704;2023-03-14T04:48:02;9.40;99.90
27162;DHT22;54464;50.558;9.704;2023-03-14T04:50:27;9.30;99.90
27162;DHT22;54464;50.558;9.704;2023-03-14T04:52:53;9.30;99.90
27162;DHT22;54464;50.558;9.704;2023-03-14T04:55:19;9.30;99.90
27162;DHT22;54464;50.558;9.704;2023-03-14T04:57:45;9.30;99.90
27162;DHT22;54464;50.558;9.704;2023-03-14T05:00:11;9.30;99.90
27162;DHT22;54464;50.558;9.704;2023-03-14T05:02:37;9.30;99.90
27162;DHT22;54464;50.558;9.704;2023-03-14T05:05:03;9.30;99.90
27162;DHT22;54464;50.558;9.704;2023-03-14T05:07:29;9.20;99.90
27162;DHT22;54464;50.558;9.704;2023-03-14T05:09:54;9.20;99.90
27162;DHT22;54464;50.558;9.704;2023-03-14T05:12:20;9.20;99.90
27162;DHT22;54464;50.558;9.704;2023-03-14T05:14:46;9.20;99.90
27162;DHT22;54464;50.558;9.704;2023-03-14T05:17:12;9.20;99.90
27162;DHT22;54464;50.558;9.704;2023-03-14T05:19:40;9.20;99.90
27162;DHT22;54464;50.558;9.704;2023-03-14T05:22:06;9.20;99.90
27162;DHT22;54464;50.558;9.704;2023-03-14T05:24:32;9.20;99.90
27162;DHT22;54464;50.558;9.704;2023-03-14T05:26:58;9.20;99.90
27162;DHT22;54464;50.558;9.704;2023-03-14T05:29:24;9.20;99.90
27162;DHT22;54464;50.558;9.704;2023-03-14T05:31:49;9.10;99.90
27162;DHT22;54464;50.558;9.704;2023-03-14T05:34:15;9.00;99.90
27162;DHT22;54464;50.558;9.704;2023-03-14T05:36:41;9.00;99.90
27162;DHT22;54464;50.558;9.704;2023-03-14T05:39:07;9.00;99.90
27162;DHT22;54464;50.558;9.704;2023-03-14T05:41:32;9.00;99.90
27162;DHT22;54464;50.558;9.704;2023-03-14T05:43:58;8.90;99.90
27162;DHT22;54464;50.558;9.704;2023-03-14T05:46:24;8.70;99.90
27162;DHT22;54464;50.558;9.704;2023-03-14T05:48:49;8.70;99.90
27162;DHT22;54464;50.558;9.704;2023-03-14T05:51:15;8.60;99.90
27162;DHT22;54464;50.558;9.704;2023-03-14T05:53:41;8.60;99.90
27162;DHT22;54464;50.558;9.704;2023-03-14T05:56:07;8.60;99.90
27162;DHT22;54464;50.558;9.704;2023-03-14T05:58:33;8.60;99.90
27162;DHT22;54464;50.558;9.704;2023-03-14T06:01:02;8.60;99.90
27162;DHT22;54464;50.558;9.704;2023-03-14T06:03:29;8.60;99.90
27162;DHT22;54464;50.558;9.704;2023-03-14T06:05:54;8.60;99.90
27162;DHT22;54464;50.558;9.704;2023-03-14T06:08:20;8.60;99.90
27162;DHT22;54464;50.558;9.704;2023-03-14T06:10:46;8.60;99.90
27162;DHT22;54464;50.558;9.704;2023-03-14T06:13:11;8.70;99.90
27162;DHT22;54464;50.558;9.704;2023-03-14T06:15:37;8.70;99.90
27162;DHT22;54464;50.558;9.704;2023-03-14T06:18:03;8.80;99.90
27162;DHT22;54464;50.558;9.704;2023-03-14T06:20:32;8.90;99.90
27162;DHT22;54464;50.558;9.704;2023-03-14T06:22:58;8.90;99.90
27162;DHT22;54464;50.558;9.704;2023-03-14T06:25:24;8.90;99.90
27162;DHT22;54464;50.558;9.704;2023-03-14T06:27:50;9.00;99.90
27162;DHT22;54464;50.558;9.704;2023-03-14T06:30:16;8.90;99.90
27162;DHT22;54464;50.558;9.704;2023-03-14T06:32:42;8.90;99.90
27162;DHT22;54464;50.558;9.704;2023-03-14T06:35:09;8.90;99.90
27162;DHT22;54464;50.558;9.704;2023-03-14T06:37:35;8.90;99.90
27162;DHT22;54464;50.558;9.704;2023-03-14T06:40:01;8.90;99.90
27162;DHT22;54464;50.558;9.704;2023-03-14T06:42:27;8.90;99.90
27162;DHT22;54464;50.558;9.704;2023-03-14T06:44:52;8.90;99.90
27162;DHT22;54464;50.558;9.704;2023-03-14T06:47:18;8.90;99.90
27162;DHT22;54464;50.558;9.704;2023-03-14T06:49:44;8.90;99.90
27162;DHT22;54464;50.558;9.704;2023-03-14T06:52:09;8.90;99.90
27162;DHT22;54464;50.558;9.704;2023-03-14T06:54:35;8.90;99.90
27162;DHT22;54464;50.558;9.704;2023-03-14T06:57:00;9.00;99.90
27162;DHT22;54464;50.558;9.704;2023-03-14T06:59:26;9.00;99.90
27162;DHT22;54464;50.558;9.704;2023-03-14T07:01:52;9.00;99.90
27162;DHT22;54464;50.558;9.704;2023-03-14T07:04:17;9.00;99.90
27162;DHT22;54464;50.558;9.704;2023-03-14T07:06:43;9.00;99.90
27162;DHT22;54464;50.558;9.704;2023-03-14T07:09:13;9.00;99.90
27162;DHT22;54464;50.558;9.704;2023-03-14T07:11:39;9.00;99.90
27162;DHT22;54464;50.558;9.704;2023-03-14T07:14:05;8.90;99.90
27162;DHT22;54464;50.558;9.704;2023-03-14T07:16:31;8.80;99.90
27162;DHT22;54464;50.558;9.704;2023-03-14T07:18:59;8.60;99.90
27162;DHT22;54464;50.558;9.704;2023-03-14T07:21:25;8.40;99.90
27162;DHT22;54464;50.558;9.704;2023-03-14T07:23:50;8.40;99.90
27162;DHT22;54464;50.558;9.704;2023-03-14T07:26:16;8.30;99.90
27162;DHT22;54464;50.558;9.704;2023-03-14T07:28:42;8.30;99.90
27162;DHT22;54464;50.558;9.704;2023-03-14T07:31:08;8.30;99.90
27162;DHT22;54464;50.558;9.704;2023-03-14T07:33:34;8.30;99.90
27162;DHT22;54464;50.558;9.704;2023-03-14T07:36:00;8.20;99.90
27162;DHT22;54464;50.558;9.704;2023-03-14T07:38:25;8.20;99.90
27162;DHT22;54464;50.558;9.704;2023-03-14T07:41:01;8.10;99.90
27162;DHT22;54464;50.558;9.704;2023-03-14T07:43:27;8.10;99.90
27162;DHT22;54464;50.558;9.704;2023-03-14T07:45:53;8.10;99.90
27162;DHT22;54464;50.558;9.704;2023-03-14T07:48:19;8.10;99.90
27162;DHT22;54464;50.558;9.704;2023-03-14T07:50:48;8.10;99.90
27162;DHT22;54464;50.558;9.704;2023-03-14T07:53:14;8.10;99.90
27162;DHT22;54464;50.558;9.704;2023-03-14T07:55:40;8.10;99.90
27162;DHT22;54464;50.558;9.704;2023-03-14T07:58:05;8.10;99.90
27162;DHT22;54464;50.558;9.704;2023-03-14T08:00:31;8.10;99.90
27162;DHT22;54464;50.558;9.704;2023-03-14T08:02:57;8.10;99.90
27162;DHT22;54464;50.558;9.704;2023-03-14T08:05:23;8.20;99.90
27162;DHT22;54464;50.558;9.704;2023-03-14T08:07:48;8.10;99.90
27162;DHT22;54464;50.558;9.704;2023-03-14T08:10:14;8.10;99.90
27162;DHT22;54464;50.558;9.704;2023-03-14T08:12:46;8.20;99.90
27162;DHT22;54464;50.558;9.704;2023-03-14T08:15:12;8.20;99.90
27162;DHT22;54464;50.558;9.704;2023-03-14T08:17:37;8.20;99.90
27162;DHT22;54464;50.558;9.704;2023-03-14T08:20:04;8.20;99.90
27162;DHT22;54464;50.558;9.704;2023-03-14T08:22:34;8.30;99.90
27162;DHT22;54464;50.558;9.704;2023-03-14T08:24:59;8.30;99.90
27162;DHT22;54464;50.558;9.704;2023-03-14T08:27:25;8.40;99.90
27162;DHT22;54464;50.558;9.704;2023-03-14T08:29:51;8.40;99.90
27162;DHT22;54464;50.558;9.704;2023-03-14T08:32:16;8.40;99.90
27162;DHT22;54464;50.558;9.704;2023-03-14T08:34:42;8.40;99.90
27162;DHT22;54464;50.558;9.704;2023-03-14T08:37:07;8.40;99.90
27162;DHT22;54464;50.558;9.704;2023-03-14T08:39:33;8.40;99.90
27162;DHT22;54464;50.558;9.704;2023-03-14T08:41:59;8.40;99.90
27162;DHT22;54464;50.558;9.704;2023-03-14T08:44:24;8.40;99.90
27162;DHT22;54464;50.558;9.704;2023-03-14T08:46:50;8.40;99.90
27162;DHT22;54464;50.558;9.704;2023-03-14T08:49:16;8.40;99.90
27162;DHT22;54464;50.558;9.704;2023-03-14T08:51:41;8.40;99.90
27162;DHT22;54464;50.558;9.704;2023-03-14T08:54:10;8.40;99.90
27162;DHT22;54464;50.558;9.704;2023-03-14T08:56:36;8.40;99.90
27162;DHT22;54464;50.558;9.704;2023-03-14T08:59:03;8.40;99.90
27162;DHT22;54464;50.558;9.704;2023-03-14T09:01:29;8.40;99.90
27162;DHT22;54464;50.558;9.704;2023-03-14T09:03:55;8.40;99.90
27162;DHT22;54464;50.558;9.704;2023-03-14T09:06:21;8.40;99.90
27162;DHT22;54464;50.558;9.704;2023-03-14T09:08:47;8.40;99.90
27162;DHT22;54464;50.558;9.704;2023-03-14T09:11:13;8.30;99.90
27162;DHT22;54464;50.558;9.704;2023-03-14T09:13:40;8.30;99.90
27162;DHT22;54464;50.558;9.704;2023-03-14T09:16:07;8.30;99.90
27162;DHT22;54464;50.558;9.704;2023-03-14T09:18:33;8.30;99.90
27162;DHT22;54464;50.558;9.704;2023-03-14T09:20:58;8.30;99.90
27162;DHT22;54464;50.558;9.704;2023-03-14T09:23:24;8.20;99.90
27162;DHT22;54464;50.558;9.704;2023-03-14T09:25:55;8.20;99.90
27162;DHT22;54464;50.558;9.704;2023-03-14T09:28:21;8.20;99.90
27162;DHT22;54464;50.558;9.704;2023-03-14T09:30:46;8.30;99.90
27162;DHT22;54464;50.558;9.704;2023-03-14T09:33:12;8.30;99.90
27162;DHT22;54464;50.558;9.704;2023-03-14T09:35:38;8.30;99.90
27162;DHT22;54464;50.558;9.704;2023-03-14T09:38:03;8.30;99.90
27162;DHT22;54464;50.558;9.704;2023-03-14T09:40:35;8.30;99.90
27162;DHT22;54464;50.558;9.704;2023-03-14T09:43:02;8.30;99.90
27162;DHT22;54464;50.558;9.704;2023-03-14T09:45:39;8.30;99.90
27162;DHT22;54464;50.558;9.704;2023-03-14T09:48:08;8.20;99.90
27162;DHT22;54464;50.558;9.704;2023-03-14T09:50:41;8.20;99.90
27162;DHT22;54464;50.558;9.704;2023-03-14T09:53:16;8.20;99.90
27162;DHT22;54464;50.558;9.704;2023-03-14T09:55:43;8.20;99.90
27162;DHT22;54464;50.558;9.704;2023-03-14T09:58:13;8.20;99.90
27162;DHT22;54464;50.558;9.704;2023-03-14T10:00:40;8.20;99.90
27162;DHT22;54464;50.558;9.704;2023-03-14T10:05:37;8.30;99.90
27162;DHT22;54464;50.558;9.704;2023-03-14T10:08:03;8.40;99.90
27162;DHT22;54464;50.558;9.704;2023-03-14T10:10:30;8.40;99.90
27162;DHT22;54464;50.558;9.704;2023-03-14T10:15:31;8.40;99.90
27162;DHT22;54464;50.558;9.704;2023-03-14T10:18:02;8.40;99.90
27162;DHT22;54464;50.558;9.704;2023-03-14T10:20:36;8.40;99.90
27162;DHT22;54464;50.558;9.704;2023-03-14T10:25:38;8.50;99.90
27162;DHT22;54464;50.558;9.704;2023-03-14T10:28:04;8.70;99.90
27162;DHT22;54464;50.558;9.704;2023-03-14T10:30:48;8.80;99.90
27162;DHT22;54464;50.558;9.704;2023-03-14T10:33:26;8.80;99.90
27162;DHT22;54464;50.558;9.704;2023-03-14T10:36:00;8.90;99.90
27162;DHT22;54464;50.558;9.704;2023-03-14T10:38:29;9.00;99.90
27162;DHT22;54464;50.558;9.704;2023-03-14T10:40:55;9.10;99.90
27162;DHT22;54464;50.558;9.704;2023-03-14T10:43:27;9.20;99.90
27162;DHT22;54464;50.558;9.704;2023-03-14T10:45:58;9.20;99.90
27162;DHT22;54464;50.558;9.704;2023-03-14T10:48:34;9.20;99.90
27162;DHT22;54464;50.558;9.704;2023-03-14T10:53:34;9.00;99.90
27162;DHT22;54464;50.558;9.704;2023-03-14T10:56:04;8.80;99.90
27162;DHT22;54464;50.558;9.704;2023-03-14T10:58:34;8.80;99.90
27162;DHT22;54464;50.558;9.704;2023-03-14T11:01:03;8.70;99.90
27162;DHT22;54464;50.558;9.704;2023-03-14T11:03:32;8.70;99.90
27162;DHT22;54464;50.558;9.704;2023-03-14T11:09:06;8.90;99.90
27162;DHT22;54464;50.558;9.704;2023-03-14T11:11:36;9.00;99.90
27162;DHT22;54464;50.558;9.704;2023-03-14T11:14:24;9.10;99.90
27162;DHT22;54464;50.558;9.704;2023-03-14T11:17:21;9.20;99.90
27162;DHT22;54464;50.558;9.704;2023-03-14T11:20:14;9.30;99.90
27162;DHT22;54464;50.558;9.704;2023-03-14T11:22:55;9.20;99.90
27162;DHT22;54464;50.558;9.704;2023-03-14T11:25:32;9.20;99.90
27162;DHT22;54464;50.558;9.704;2023-03-14T11:30:39;9.20;99.90
27162;DHT22;54464;50.558;9.704;2023-03-14T11:33:16;9.20;99.90
27162;DHT22;54464;50.558;9.704;2023-03-14T11:36:03;9.20;99.90
27162;DHT22;54464;50.558;9.704;2023-03-14T11:40:58;9.40;99.90
27162;DHT22;54464;50.558;9.704;2023-03-14T11:45:56;9.50;99.90
27162;DHT22;54464;50.558;9.704;2023-03-14T11:51:13;9.40;99.90
27162;DHT22;54464;50.558;9.704;2023-03-14T11:59:14;9.40;99.90
27162;DHT22;54464;50.558;9.704;2023-03-14T12:10:14;9.60;99.90
27162;DHT22;54464;50.558;9.704;2023-03-14T12:12:40;9.60;99.90
27162;DHT22;54464;50.558;9.704;2023-03-14T12:15:21;9.50;99.90
27162;DHT22;54464;50.558;9.704;2023-03-14T12:17:54;9.40;99.90
27162;DHT22;54464;50.558;9.704;2023-03-14T12:20:22;9.20;99.90
27162;DHT22;54464;50.558;9.704;2023-03-14T12:23:02;9.20;99.90
27162;DHT22;54464;50.558;9.704;2023-03-14T12:25:33;9.20;99.90
27162;DHT22;54464;50.558;9.704;2023-03-14T12:30:26;9.10;99.90
27162;DHT22;54464;50.558;9.704;2023-03-14T12:35:51;9.00;99.90
27162;DHT22;54464;50.558;9.704;2023-03-14T12:38:43;9.00;99.90
27162;DHT22;54464;50.558;9.704;2023-03-14T12:43:43;8.90;99.90
27162;DHT22;54464;50.558;9.704;2023-03-14T12:46:22;8.90;99.90
27162;DHT22;54464;50.558;9.704;2023-03-14T12:51:37;8.80;99.90
27162;DHT22;54464;50.558;9.704;2023-03-14T12:56:54;8.70;99.90
27162;DHT22;54464;50.558;9.704;2023-03-14T13:00:13;8.70;99.90
27162;DHT22;54464;50.558;9.704;2023-03-14T13:02:24;8.70;99.90
27162;DHT22;54464;50.558;9.704;2023-03-14T13:05:05;8.70;99.90
27162;DHT22;54464;50.558;9.704;2023-03-14T13:12:43;7.90;99.90
27162;DHT22;54464;50.558;9.704;2023-03-14T13:15:20;7.90;99.90
27162;DHT22;54464;50.558;9.704;2023-03-14T13:20:51;7.80;99.90
27162;DHT22;54464;50.558;9.704;2023-03-14T13:23:24;7.70;99.90
27162;DHT22;54464;50.558;9.704;2023-03-14T13:25:50;7.60;99.90
27162;DHT22;54464;50.558;9.704;2023-03-14T13:28:17;7.60;99.90
27162;DHT22;54464;50.558;9.704;2023-03-14T13:30:46;7.50;99.90
27162;DHT22;54464;50.558;9.704;2023-03-14T13:33:17;7.40;99.90
27162;DHT22;54464;50.558;9.704;2023-03-14T13:35:46;7.40;99.90
27162;DHT22;54464;50.558;9.704;2023-03-14T13:38:23;7.30;99.90
27162;DHT22;54464;50.558;9.704;2023-03-14T13:40:50;7.20;99.90
27162;DHT22;54464;50.558;9.704;2023-03-14T13:43:27;7.00;99.90
27162;DHT22;54464;50.558;9.704;2023-03-14T13:46:04;7.00;99.90
27162;DHT22;54464;50.558;9.704;2023-03-14T13:48:32;6.80;99.90
27162;DHT22;54464;50.558;9.704;2023-03-14T13:51:09;6.80;99.90
27162;DHT22;54464;50.558;9.704;2023-03-14T13:53:50;6.70;99.90
27162;DHT22;54464;50.558;9.704;2023-03-14T13:56:18;6.70;99.90
27162;DHT22;54464;50.558;9.704;2023-03-14T13:58:44;6.60;99.90
27162;DHT22;54464;50.558;9.704;2023-03-14T14:01:29;6.70;99.90
27162;DHT22;54464;50.558;9.704;2023-03-14T14:03:58;6.60;99.90
27162;DHT22;54464;50.558;9.704;2023-03-14T14:08:56;6.50;99.90
27162;DHT22;54464;50.558;9.704;2023-03-14T14:14:01;6.50;99.90
27162;DHT22;54464;50.558;9.704;2023-03-14T14:16:28;6.60;99.90
27162;DHT22;54464;50.558;9.704;2023-03-14T14:18:56;6.60;99.90
27162;DHT22;54464;50.558;9.704;2023-03-14T14:21:23;6.50;99.90
27162;DHT22;54464;50.558;9.704;2023-03-14T14:23:49;6.50;99.90
27162;DHT22;54464;50.558;9.704;2023-03-14T14:26:21;6.50;99.90
27162;DHT22;54464;50.558;9.704;2023-03-14T14:28:47;6.40;99.90
27162;DHT22;54464;50.558;9.704;2023-03-14T14:31:25;6.40;99.90
27162;DHT22;54464;50.558;9.704;2023-03-14T14:34:04;6.40;99.90
27162;DHT22;54464;50.558;9.704;2023-03-14T14:39:00;6.40;99.90
27162;DHT22;54464;50.558;9.704;2023-03-14T14:41:28;6.40;99.90
27162;DHT22;54464;50.558;9.704;2023-03-14T14:43:55;6.30;99.90
27162;DHT22;54464;50.558;9.704;2023-03-14T14:46:21;6.30;99.90
27162;DHT22;54464;50.558;9.704;2023-03-14T14:48:47;6.20;99.90
27162;DHT22;54464;50.558;9.704;2023-03-14T14:51:26;6.20;99.90
27162;DHT22;54464;50.558;9.704;2023-03-14T14:54:03;6.10;99.90
27162;DHT22;54464;50.558;9.704;2023-03-14T14:56:29;6.00;99.90
27162;DHT22;54464;50.558;9.704;2023-03-14T14:58:59;6.00;99.90
27162;DHT22;54464;50.558;9.704;2023-03-14T15:01:41;5.90;99.90
27162;DHT22;54464;50.558;9.704;2023-03-14T15:04:12;5.80;99.90
27162;DHT22;54464;50.558;9.704;2023-03-14T15:06:39;5.80;99.90
27162;DHT22;54464;50.558;9.704;2023-03-14T15:09:10;5.70;99.90
27162;DHT22;54464;50.558;9.704;2023-03-14T15:11:39;5.60;99.90
27162;DHT22;54464;50.558;9.704;2023-03-14T15:14:04;5.50;99.90
27162;DHT22;54464;50.558;9.704;2023-03-14T15:16:32;5.40;99.90
27162;DHT22;54464;50.558;9.704;2023-03-14T15:19:00;5.30;99.90
27162;DHT22;54464;50.558;9.704;2023-03-14T15:21:27;5.20;99.90
27162;DHT22;54464;50.558;9.704;2023-03-14T15:23:53;5.10;99.90
27162;DHT22;54464;50.558;9.704;2023-03-14T15:26:22;5.00;99.90
27162;DHT22;54464;50.558;9.704;2023-03-14T15:28:48;4.90;99.90
27162;DHT22;54464;50.558;9.704;2023-03-14T15:31:15;4.90;99.90
27162;DHT22;54464;50.558;9.704;2023-03-14T15:33:43;4.80;99.90
27162;DHT22;54464;50.558;9.704;2023-03-14T15:36:27;4.80;99.90
27162;DHT22;54464;50.558;9.704;2023-03-14T15:38:54;4.70;99.90
27162;DHT22;54464;50.558;9.704;2023-03-14T15:41:21;4.80;99.90
27162;DHT22;54464;50.558;9.704;2023-03-14T15:43:47;4.70;99.90
27162;DHT22;54464;50.558;9.704;2023-03-14T15:46:13;4.70;99.90
27162;DHT22;54464;50.558;9.704;2023-03-14T15:48:40;4.70;99.90
27162;DHT22;54464;50.558;9.704;2023-03-14T15:51:06;4.70;99.90
27162;DHT22;54464;50.558;9.704;2023-03-14T15:53:32;4.70;99.90
27162;DHT22;54464;50.558;9.704;2023-03-14T15:55:58;4.60;99.90
27162;DHT22;54464;50.558;9.704;2023-03-14T15:58:24;4.60;99.90
27162;DHT22;54464;50.558;9.704;2023-03-14T16:00:50;4.60;99.90
27162;DHT22;54464;50.558;9.704;2023-03-14T16:03:16;4.60;99.90
27162;DHT22;54464;50.558;9.704;2023-03-14T16:05:42;4.60;99.90
27162;DHT22;54464;50.558;9.704;2023-03-14T16:08:08;4.70;99.90
27162;DHT22;54464;50.558;9.704;2023-03-14T16:10:34;4.80;99.90
27162;DHT22;54464;50.558;9.704;2023-03-14T16:13:00;4.80;99.90
27162;DHT22;54464;50.558;9.704;2023-03-14T16:15:25;4.90;99.90
27162;DHT22;54464;50.558;9.704;2023-03-14T16:17:55;5.20;99.90
27162;DHT22;54464;50.558;9.704;2023-03-14T16:20:22;5.40;99.90
27162;DHT22;54464;50.558;9.704;2023-03-14T16:22:48;5.60;99.90
27162;DHT22;54464;50.558;9.704;2023-03-14T16:25:14;5.60;99.90
27162;DHT22;54464;50.558;9.704;2023-03-14T16:27:40;5.60;99.90
27162;DHT22;54464;50.558;9.704;2023-03-14T16:30:07;5.50;99.90
27162;DHT22;54464;50.558;9.704;2023-03-14T16:32:33;5.50;99.90
27162;DHT22;54464;50.558;9.704;2023-03-14T16:34:59;5.40;99.90
27162;DHT22;54464;50.558;9.704;2023-03-14T16:37:25;5.30;99.90
27162;DHT22;54464;50.558;9.704;2023-03-14T16:39:52;5.10;99.90
27162;DHT22;54464;50.558;9.704;2023-03-14T16:42:18;5.10;99.90
27162;DHT22;54464;50.558;9.704;2023-03-14T16:44:44;5.10;99.90
27162;DHT22;54464;50.558;9.704;2023-03-14T16:47:10;5.00;99.90
27162;DHT22;54464;50.558;9.704;2023-03-14T16:49:36;5.00;99.90
27162;DHT22;54464;50.558;9.704;2023-03-14T16:52:02;5.00;99.90
27162;DHT22;54464;50.558;9.704;2023-03-14T16:54:28;5.00;99.90
27162;DHT22;54464;50.558;9.704;2023-03-14T16:56:53;5.00;99.90
27162;DHT22;54464;50.558;9.704;2023-03-14T16:59:19;5.00;99.90
27162;DHT22;54464;50.558;9.704;2023-03-14T17:01:45;4.90;99.90
27162;DHT22;54464;50.558;9.704;2023-03-14T17:04:11;4.90;99.90
27162;DHT22;54464;50.558;9.704;2023-03-14T17:06:37;5.00;99.90
27162;DHT22;54464;50.558;9.704;2023-03-14T17:09:05;4.90;99.90
27162;DHT22;54464;50.558;9.704;2023-03-14T17:11:32;5.00;99.90
27162;DHT22;54464;50.558;9.704;2023-03-14T17:13:58;4.90;99.90
27162;DHT22;54464;50.558;9.704;2023-03-14T17:16:24;5.00;99.90
27162;DHT22;54464;50.558;9.704;2023-03-14T17:18:50;4.90;99.90
27162;DHT22;54464;50.558;9.704;2023-03-14T17:21:16;4.90;99.90
27162;DHT22;54464;50.558;9.704;2023-03-14T17:23:42;4.80;99.90
27162;DHT22;54464;50.558;9.704;2023-03-14T17:26:08;4.40;99.90
27162;DHT22;54464;50.558;9.704;2023-03-14T17:28:35;4.20;99.90
27162;DHT22;54464;50.558;9.704;2023-03-14T17:31:06;4.10;99.90
27162;DHT22;54464;50.558;9.704;2023-03-14T17:33:32;4.00;99.90
27162;DHT22;54464;50.558;9.704;2023-03-14T17:35:58;3.90;99.90
27162;DHT22;54464;50.558;9.704;2023-03-14T17:38:24;3.80;99.90
27162;DHT22;54464;50.558;9.704;2023-03-14T17:40:51;3.90;99.90